Time;durP1;ratioP1;P1;durP2;ratioP2;P2;SDS_P1;SDS_P2;PMS_P1;PMS_P2;Temp;Humidity;BMP_temperature;BMP_pressure;BME280_temperature;BME280_humidity;BME280_pressure;Samples;Min_cycle;Max_cycle;Signal;HPM_P1;HPM_P2
2021/12/14 00:00:50;;;;;;;13.60;13.10;;;20.60;62.10;;;;;;5030943;28;20450;-48
2021/12/14 00:03:21;;;;;;;13.40;13.00;;;20.60;62.40;;;;;;5031080;28;20448;-50
2021/12/14 00:05:49;;;;;;;12.50;12.13;;;20.60;62.70;;;;;;5030910;28;20472;-48
2021/12/14 00:08:16;;;;;;;12.80;12.40;;;20.60;63.00;;;;;;5030452;28;20448;-47
2021/12/14 00:10:57;;;;;;;12.77;12.37;;;20.50;63.00;;;;;;5030899;28;20447;-47
2021/12/14 00:13:41;;;;;;;13.93;13.53;;;20.50;63.20;;;;;;5030730;28;20444;-48
2021/12/14 00:16:10;;;;;;;13.50;13.00;;;20.50;63.30;;;;;;5030880;28;20484;-47
2021/12/14 00:18:38;;;;;;;13.77;13.37;;;20.50;63.40;;;;;;5031190;28;20444;-50
2021/12/14 00:21:09;;;;;;;13.93;13.43;;;20.50;63.60;;;;;;5034392;28;20452;-50
2021/12/14 00:26:23;;;;;;;14.00;13.50;;;20.40;63.80;;;;;;5034425;28;20853;-49
2021/12/14 00:28:51;;;;;;;13.97;13.47;;;20.40;64.00;;;;;;5033972;28;20896;-47
2021/12/14 00:31:20;;;;;;;13.63;13.20;;;20.40;64.10;;;;;;5034227;28;20934;-49
2021/12/14 00:33:50;;;;;;;14.47;13.70;;;20.30;64.10;;;;;;5034020;28;20453;-47
2021/12/14 00:36:17;;;;;;;13.47;13.07;;;20.30;64.30;;;;;;5033850;28;20488;-54
2021/12/14 00:38:48;;;;;;;13.87;13.37;;;20.30;64.20;;;;;;5033806;28;20453;-48
2021/12/14 00:41:18;;;;;;;13.73;13.33;;;20.30;64.30;;;;;;5034102;28;20452;-48
2021/12/14 00:43:46;;;;;;;13.80;13.40;;;20.20;64.50;;;;;;5033878;28;20445;-47
2021/12/14 00:46:17;;;;;;;13.80;13.40;;;20.20;64.70;;;;;;5033791;28;20996;-48
2021/12/14 00:48:44;;;;;;;14.00;13.60;;;20.20;64.60;;;;;;5033852;28;20540;-48
2021/12/14 00:51:12;;;;;;;13.47;13.07;;;20.10;64.90;;;;;;5033802;28;20445;-47
2021/12/14 00:53:40;;;;;;;13.37;12.97;;;20.10;65.10;;;;;;5033635;28;20453;-48
2021/12/14 00:56:11;;;;;;;13.70;13.20;;;20.10;65.30;;;;;;5033598;28;20492;-47
2021/12/14 00:58:38;;;;;;;14.23;13.73;;;20.10;65.40;;;;;;5033494;28;20456;-51
2021/12/14 01:01:09;;;;;;;13.50;13.10;;;20.00;65.50;;;;;;5033760;28;20445;-47
2021/12/14 01:03:43;;;;;;;14.23;13.73;;;20.00;66.10;;;;;;5033333;28;20460;-52
2021/12/14 01:06:11;;;;;;;13.40;13.00;;;19.90;66.50;;;;;;5033423;28;20832;-47
2021/12/14 01:08:40;;;;;;;13.20;12.80;;;19.90;66.70;;;;;;5033510;28;20445;-50
2021/12/14 01:11:12;;;;;;;12.70;12.30;;;19.90;67.20;;;;;;5033553;28;20935;-47
2021/12/14 01:13:45;;;;;;;13.40;13.00;;;19.80;67.40;;;;;;5033322;28;20877;-47
2021/12/14 01:16:17;;;;;;;13.53;13.03;;;19.80;67.80;;;;;;5033015;28;20894;-47
2021/12/14 01:18:50;;;;;;;13.37;12.97;;;19.90;68.30;;;;;;5033380;28;20445;-49
2021/12/14 01:21:27;;;;;;;13.90;13.40;;;19.90;68.20;;;;;;5033493;28;20539;-47
2021/12/14 01:24:03;;;;;;;13.77;13.37;;;19.90;68.70;;;;;;5033178;28;20957;-47
2021/12/14 01:26:32;;;;;;;13.50;13.10;;;19.80;68.90;;;;;;5033032;28;20469;-47
2021/12/14 01:29:00;;;;;;;13.30;12.90;;;19.80;69.30;;;;;;5033150;28;20452;-48
2021/12/14 01:31:33;;;;;;;14.03;13.63;;;19.70;69.50;;;;;;5032125;28;20450;-52
2021/12/14 01:34:06;;;;;;;12.83;12.53;;;19.70;69.60;;;;;;5032964;28;20518;-51
2021/12/14 01:36:41;;;;;;;13.70;13.20;;;19.70;69.90;;;;;;5032744;28;20495;-54
2021/12/14 01:39:34;;;;;;;13.20;12.80;;;19.70;70.20;;;;;;5033019;28;20933;-47
2021/12/14 01:42:05;;;;;;;13.53;13.13;;;19.60;70.20;;;;;;5032769;28;20939;-53
2021/12/14 01:44:35;;;;;;;13.93;13.53;;;19.70;70.40;;;;;;5032903;28;20445;-47
2021/12/14 01:47:05;;;;;;;13.10;12.60;;;19.60;70.70;;;;;;5032291;28;20539;-47
2021/12/14 01:49:34;;;;;;;13.07;12.67;;;19.60;71.30;;;;;;5032871;28;20448;-49
2021/12/14 01:52:08;;;;;;;12.70;12.30;;;19.60;71.80;;;;;;5032525;28;20491;-47
2021/12/14 01:54:38;;;;;;;12.97;12.63;;;19.50;72.50;;;;;;5032570;28;20456;-47
2021/12/14 01:57:07;;;;;;;12.93;12.53;;;19.50;72.90;;;;;;5032458;28;20859;-50
2021/12/14 01:59:38;;;;;;;13.90;13.50;;;19.50;73.40;;;;;;5032585;28;20479;-49
2021/12/14 02:02:19;;;;;;;13.53;13.13;;;19.60;73.90;;;;;;5032399;28;20450;-47
2021/12/14 02:04:49;;;;;;;13.60;13.03;;;19.60;74.40;;;;;;5032218;28;20476;-52
2021/12/14 02:07:18;;;;;;;12.67;12.37;;;19.50;74.30;;;;;;5032207;28;20461;-48
2021/12/14 02:09:49;;;;;;;12.70;12.40;;;19.50;74.60;;;;;;5032331;28;20958;-48
2021/12/14 02:12:19;;;;;;;13.17;12.80;;;19.50;74.70;;;;;;5032148;28;20445;-47
2021/12/14 02:14:47;;;;;;;12.50;12.20;;;19.50;75.10;;;;;;5032052;28;20452;-47
2021/12/14 02:17:19;;;;;;;13.07;12.67;;;19.50;75.10;;;;;;5032038;28;20845;-47
2021/12/14 02:19:48;;;;;;;13.03;12.63;;;19.40;75.20;;;;;;5032230;28;20510;-47
2021/12/14 02:22:17;;;;;;;13.40;13.00;;;19.40;75.50;;;;;;5031883;28;20449;-47
2021/12/14 02:24:50;;;;;;;12.97;12.60;;;19.40;75.50;;;;;;5031900;28;20456;-47
2021/12/14 02:27:17;;;;;;;13.03;12.63;;;19.40;75.90;;;;;;5031974;28;20457;-47
2021/12/14 02:29:46;;;;;;;13.37;12.87;;;19.40;75.90;;;;;;5012404;28;20449;-47
2021/12/14 02:32:16;;;;;;;12.47;12.17;;;19.40;76.40;;;;;;5011956;28;20454;-48
2021/12/14 02:34:44;;;;;;;14.00;13.60;;;19.30;76.50;;;;;;5020722;28;20453;-51
2021/12/14 02:37:13;;;;;;;13.20;12.80;;;19.30;77.30;;;;;;5031857;28;20894;-48
2021/12/14 02:40:00;;;;;;;13.37;12.97;;;19.30;77.30;;;;;;5032010;28;20452;-47
2021/12/14 02:42:29;;;;;;;13.30;12.90;;;19.30;78.10;;;;;;5031625;28;20460;-47
2021/12/14 02:44:58;;;;;;;13.50;13.10;;;19.30;78.70;;;;;;5031700;28;20839;-46
2021/12/14 02:47:25;;;;;;;12.80;12.43;;;19.30;78.80;;;;;;5031500;28;20473;-49
2021/12/14 02:49:53;;;;;;;13.20;12.60;;;19.30;78.90;;;;;;5031840;28;20449;-48
2021/12/14 02:52:29;;;;;;;13.27;12.87;;;19.30;79.20;;;;;;5031615;28;20445;-47
2021/12/14 02:55:01;;;;;;;13.30;12.90;;;19.30;79.20;;;;;;5031295;28;20938;-47
2021/12/14 02:57:30;;;;;;;13.40;13.00;;;19.20;79.80;;;;;;5031634;28;20488;-47
2021/12/14 02:59:58;;;;;;;13.93;13.43;;;19.20;79.90;;;;;;5031550;28;20536;-47
2021/12/14 03:02:28;;;;;;;12.80;12.40;;;19.20;80.50;;;;;;5031431;28;20459;-52
2021/12/14 03:04:58;;;;;;;13.00;12.60;;;19.20;80.50;;;;;;5031403;28;20445;-50
2021/12/14 03:07:40;;;;;;;13.63;13.23;;;19.20;80.90;;;;;;5031333;28;20527;-47
2021/12/14 03:10:21;;;;;;;13.40;13.00;;;19.20;80.70;;;;;;5031410;28;20453;-47
2021/12/14 03:12:51;;;;;;;13.33;12.93;;;19.10;81.10;;;;;;5031348;28;20445;-47
2021/12/14 03:15:21;;;;;;;12.80;12.47;;;19.10;82.40;;;;;;5031112;28;20453;-51
2021/12/14 03:17:49;;;;;;;13.10;12.70;;;19.10;81.50;;;;;;5031473;28;20535;-49
2021/12/14 03:20:20;;;;;;;13.00;12.60;;;19.10;82.50;;;;;;5031355;28;20452;-47
2021/12/14 03:22:49;;;;;;;13.40;13.00;;;19.10;83.40;;;;;;5031277;28;20456;-47
2021/12/14 03:25:19;;;;;;;13.90;13.40;;;19.10;83.80;;;;;;5030951;28;20445;-49
2021/12/14 03:27:47;;;;;;;13.20;12.80;;;19.20;84.10;;;;;;5031275;28;20445;-50
2021/12/14 03:30:23;;;;;;;12.87;12.47;;;19.30;84.20;;;;;;5031315;28;20456;-51
2021/12/14 03:32:50;;;;;;;13.73;13.30;;;19.20;85.00;;;;;;5031179;28;20500;-49
2021/12/14 03:35:19;;;;;;;13.60;13.10;;;19.30;84.60;;;;;;5030959;28;20852;-47
2021/12/14 03:37:46;;;;;;;12.30;12.00;;;19.30;84.50;;;;;;5031277;28;20488;-47
2021/12/14 03:40:13;;;;;;;13.17;12.77;;;19.30;84.90;;;;;;5031236;28;20441;-47
2021/12/14 03:42:43;;;;;;;12.80;12.30;;;19.20;85.00;;;;;;5030996;28;20988;-52
2021/12/14 03:45:13;;;;;;;13.07;12.57;;;19.30;85.50;;;;;;5030723;28;20457;-50
2021/12/14 03:47:43;;;;;;;14.33;13.83;;;19.20;85.50;;;;;;5031094;28;20436;-47
2021/12/14 03:50:13;;;;;;;13.70;13.20;;;19.20;85.60;;;;;;5031113;28;20444;-47
2021/12/14 03:52:42;;;;;;;13.40;13.00;;;19.10;86.20;;;;;;5030942;28;20441;-47
2021/12/14 03:55:13;;;;;;;14.10;13.30;;;19.30;86.30;;;;;;5033855;28;20456;-49
2021/12/14 03:57:41;;;;;;;12.73;12.40;;;19.20;86.00;;;;;;5034937;28;20480;-47
2021/12/14 04:00:14;;;;;;;13.17;12.77;;;19.20;86.20;;;;;;5034755;28;20445;-46
2021/12/14 04:02:41;;;;;;;13.00;12.53;;;19.20;86.50;;;;;;5034652;28;20445;-51
2021/12/14 04:05:11;;;;;;;11.80;11.50;;;19.20;86.70;;;;;;5034554;28;20969;-47
2021/12/14 04:07:41;;;;;;;12.50;12.20;;;19.20;86.90;;;;;;5034645;28;20445;-47
2021/12/14 04:10:10;;;;;;;12.07;11.77;;;19.20;86.90;;;;;;5034507;28;20455;-47
2021/12/14 04:12:38;;;;;;;13.10;12.70;;;19.20;87.40;;;;;;5034453;28;20441;-51
2021/12/14 04:15:07;;;;;;;12.83;12.43;;;19.20;87.40;;;;;;5034229;28;20461;-47
2021/12/14 04:17:34;;;;;;;13.73;13.33;;;19.20;87.60;;;;;;5034372;28;20497;-47
2021/12/14 04:20:01;;;;;;;13.20;12.80;;;19.20;87.60;;;;;;5034117;28;20491;-47
2021/12/14 04:22:30;;;;;;;12.83;12.43;;;19.30;87.90;;;;;;5034292;28;20460;-48
2021/12/14 04:25:00;;;;;;;12.07;11.77;;;19.20;87.90;;;;;;5034145;28;20524;-50
2021/12/14 04:27:31;;;;;;;13.07;12.63;;;19.20;88.20;;;;;;5034313;28;20468;-52
2021/12/14 04:30:01;;;;;;;12.63;12.23;;;19.20;88.30;;;;;;5034253;28;20451;-50
2021/12/14 04:32:29;;;;;;;12.40;12.10;;;19.20;88.60;;;;;;5034110;28;20449;-47
2021/12/14 04:34:57;;;;;;;12.80;12.43;;;19.20;89.20;;;;;;5033990;28;20444;-49
2021/12/14 04:37:24;;;;;;;13.03;12.63;;;19.20;89.20;;;;;;5033939;28;20488;-50
2021/12/14 04:39:57;;;;;;;13.20;12.80;;;19.20;89.70;;;;;;5034168;28;20949;-47
2021/12/14 04:53:41;;;;;;;13.93;13.43;;;19.20;90.10;;;;;;5033726;28;20459;-48
2021/12/14 04:56:11;;;;;;;14.17;13.70;;;19.10;90.10;;;;;;5033589;28;20467;-47
2021/12/14 04:58:40;;;;;;;14.43;13.93;;;19.10;90.40;;;;;;5033615;28;20485;-47
2021/12/14 05:01:10;;;;;;;13.93;13.53;;;19.10;90.40;;;;;;5033756;28;20445;-47
2021/12/14 05:03:42;;;;;;;13.63;13.23;;;19.10;90.50;;;;;;5033355;28;20445;-48
2021/12/14 05:06:14;;;;;;;14.13;13.73;;;19.10;90.50;;;;;;5033266;28;20556;-48
2021/12/14 05:11:29;;;;;;;14.60;14.20;;;19.10;90.80;;;;;;5033290;28;20456;-47
2021/12/14 05:14:04;;;;;;;14.20;13.80;;;19.10;91.00;;;;;;5033269;28;20930;-47
2021/12/14 05:16:32;;;;;;;13.63;13.23;;;19.00;91.10;;;;;;5033420;28;20472;-52
2021/12/14 05:19:04;;;;;;;14.20;13.80;;;19.10;91.30;;;;;;5033078;28;21114;-52
2021/12/14 05:21:33;;;;;;;14.77;14.23;;;19.10;91.30;;;;;;5033038;28;20457;-47
2021/12/14 05:24:04;;;;;;;15.53;14.93;;;19.10;91.50;;;;;;5033194;28;20877;-47
2021/12/14 05:26:31;;;;;;;16.53;15.53;;;19.00;91.40;;;;;;5033283;28;20982;-47
2021/12/14 05:28:58;;;;;;;18.37;17.17;;;19.00;99.90;;;;;;5032963;28;20801;-46
2021/12/14 05:31:25;;;;;;;16.60;14.97;;;19.10;99.90;;;;;;5033037;28;20445;-47
2021/12/14 05:33:53;;;;;;;24.47;13.80;;;19.20;99.90;;;;;;5033094;28;20449;-51
2021/12/14 05:36:22;;;;;;;17.10;15.40;;;19.30;99.90;;;;;;5032911;28;20465;-48
2021/12/14 05:38:58;;;;;;;13.13;10.60;;;19.40;99.90;;;;;;5032600;28;20504;-47
2021/12/14 05:44:15;;;;;;;14.33;7.87;;;19.50;99.90;;;;;;5032921;28;20425;-52
2021/12/14 05:46:49;;;;;;;16.67;8.07;;;19.50;99.90;;;;;;5066849;22;20506;-52
2021/12/14 05:49:19;;;;;;;14.30;9.13;;;19.50;99.90;;;;;;5052574;28;20471;-52
2021/12/14 05:51:48;;;;;;;22.60;8.90;;;19.40;99.90;;;;;;5052401;28;20813;-50
2021/12/14 05:54:20;;;;;;;12.47;11.27;;;19.40;99.90;;;;;;5052320;28;20444;-50
2021/12/14 05:56:47;;;;;;;15.93;12.10;;;19.50;99.90;;;;;;5052426;28;20559;-51
2021/12/14 05:59:19;;;;;;;19.93;14.00;;;19.70;99.90;;;;;;5052667;28;20495;-50
2021/12/14 06:01:46;;;;;;;14.17;12.77;;;20.00;99.90;;;;;;5052487;28;20494;-53
2021/12/14 06:04:13;;;;;;;16.40;14.33;;;20.20;99.90;;;;;;5052411;28;20462;-52
2021/12/14 06:06:42;;;;;;;17.43;15.63;;;20.40;99.90;;;;;;5052319;28;20476;-52
2021/12/14 06:09:13;;;;;;;15.67;14.10;;;20.40;99.90;;;;;;5052502;28;20843;-50
2021/12/14 06:11:41;;;;;;;16.40;14.90;;;20.50;99.90;;;;;;5052044;28;20448;-56
2021/12/14 06:14:16;;;;;;;16.20;14.80;;;20.50;99.90;;;;;;5052313;28;20452;-49
2021/12/14 06:16:43;;;;;;;17.50;15.87;;;20.50;99.90;;;;;;5051783;28;20475;-50
2021/12/14 06:19:15;;;;;;;17.13;15.57;;;20.50;99.90;;;;;;5052047;28;20476;-50
2021/12/14 06:21:43;;;;;;;16.90;15.50;;;20.50;99.90;;;;;;5051994;28;20448;-50
2021/12/14 06:24:11;;;;;;;16.83;15.20;;;20.50;99.90;;;;;;5052034;28;20440;-51
2021/12/14 06:26:41;;;;;;;16.40;15.40;;;20.50;99.90;;;;;;5051914;28;20984;-49
2021/12/14 06:29:10;;;;;;;17.50;16.10;;;20.50;99.90;;;;;;5052184;28;20451;-49
2021/12/14 06:31:39;;;;;;;16.03;14.83;;;20.40;99.90;;;;;;5051623;28;20502;-49
2021/12/14 06:34:15;;;;;;;15.90;14.90;;;20.40;99.90;;;;;;5051831;28;20488;-50
2021/12/14 06:37:29;;;;;;;16.77;15.63;;;20.30;99.90;;;;;;5051751;28;20475;-52
2021/12/14 06:40:06;;;;;;;15.37;14.30;;;20.10;99.90;;;;;;5051821;28;20525;-50
2021/12/14 06:42:34;;;;;;;17.73;15.97;;;20.00;99.90;;;;;;5051564;28;20448;-51
2021/12/14 06:45:10;;;;;;;17.23;15.90;;;19.90;99.90;;;;;;5052054;28;20456;-51
2021/12/14 06:47:38;;;;;;;15.37;14.40;;;19.80;99.90;;;;;;5051407;28;20468;-52
2021/12/14 06:50:07;;;;;;;17.57;16.20;;;19.80;99.90;;;;;;5051546;28;20457;-52
2021/12/14 06:52:34;;;;;;;16.93;15.40;;;19.70;99.90;;;;;;5051302;28;20451;-50
2021/12/14 06:55:04;;;;;;;16.57;15.43;;;19.70;99.90;;;;;;5051640;28;20440;-54
2021/12/14 06:57:30;;;;;;;15.93;14.80;;;19.60;99.90;;;;;;5051408;28;20468;-50
2021/12/14 06:59:58;;;;;;;16.07;15.17;;;19.60;99.90;;;;;;5051448;28;20444;-54
2021/12/14 07:02:26;;;;;;;16.57;15.50;;;19.60;99.90;;;;;;5051272;28;20456;-50
2021/12/14 07:04:53;;;;;;;16.90;15.60;;;19.50;99.90;;;;;;5051490;28;20452;-52
2021/12/14 07:07:23;;;;;;;16.63;15.27;;;19.50;99.90;;;;;;5051300;28;20955;-53
2021/12/14 07:09:53;;;;;;;17.23;15.70;;;19.50;99.90;;;;;;5051315;28;20448;-54
2021/12/14 07:12:24;;;;;;;16.33;15.37;;;19.50;99.90;;;;;;5051216;28;20451;-50
2021/12/14 07:15:09;;;;;;;15.87;14.97;;;19.50;99.90;;;;;;5051431;28;20452;-54
2021/12/14 07:17:42;;;;;;;17.63;16.50;;;19.50;99.90;;;;;;5051314;28;20472;-49
2021/12/14 07:20:21;;;;;;;16.13;15.40;;;19.50;99.90;;;;;;5051502;28;20444;-49
2021/12/14 07:22:50;;;;;;;15.97;15.17;;;19.50;99.90;;;;;;5051159;28;20505;-54
2021/12/14 07:25:23;;;;;;;15.67;14.53;;;19.50;99.90;;;;;;5051246;28;20448;-50
2021/12/14 07:27:52;;;;;;;16.00;15.00;;;19.50;99.90;;;;;;5051347;28;20456;-49
2021/12/14 07:30:22;;;;;;;15.53;14.70;;;19.40;99.90;;;;;;5054718;28;20463;-49
2021/12/14 07:32:52;;;;;;;14.63;13.73;;;19.40;99.90;;;;;;5055060;28;20444;-54
2021/12/14 07:35:48;;;;;;;15.27;14.30;;;19.30;99.90;;;;;;5055346;28;20817;-49
2021/12/14 07:38:32;;;;;;;14.83;14.03;;;19.20;99.90;;;;;;5055237;28;20511;-53
2021/12/14 07:41:21;;;;;;;16.40;15.17;;;19.20;99.90;;;;;;5055231;28;20815;-54
2021/12/14 07:43:54;;;;;;;14.97;13.97;;;19.20;99.90;;;;;;5054937;28;20809;-54
2021/12/14 07:46:25;;;;;;;14.70;13.93;;;19.30;99.90;;;;;;5054954;28;21078;-54
2021/12/14 07:48:54;;;;;;;14.40;13.57;;;19.30;99.90;;;;;;5054890;28;20963;-51
2021/12/14 07:51:23;;;;;;;15.00;14.20;;;19.20;99.90;;;;;;5054989;28;20448;-53
2021/12/14 07:53:54;;;;;;;13.90;13.20;;;19.20;99.90;;;;;;5054756;28;20490;-51
2021/12/14 07:56:32;;;;;;;13.50;12.90;;;19.10;99.90;;;;;;5054739;28;20467;-54
2021/12/14 07:59:01;;;;;;;14.73;14.03;;;19.10;99.90;;;;;;5054738;28;20475;-53
2021/12/14 08:01:28;;;;;;;14.80;14.20;;;19.10;99.90;;;;;;5054593;28;20816;-51
2021/12/14 08:04:06;;;;;;;14.37;13.60;;;19.00;99.90;;;;;;5054677;28;20452;-52
2021/12/14 08:06:48;;;;;;;15.10;14.33;;;19.00;99.90;;;;;;5054592;28;20870;-50
2021/12/14 08:09:19;;;;;;;15.90;15.10;;;19.00;99.90;;;;;;5054597;28;20440;-50
2021/12/14 08:11:50;;;;;;;14.70;14.03;;;19.00;99.90;;;;;;5054422;28;20456;-50
2021/12/14 08:14:24;;;;;;;13.07;12.50;;;18.90;99.90;;;;;;5054705;28;20444;-50
2021/12/14 08:16:55;;;;;;;14.00;13.40;;;19.00;99.90;;;;;;5054500;28;20463;-52
2021/12/14 08:19:30;;;;;;;15.73;14.83;;;18.90;99.90;;;;;;5054465;28;20483;-53
2021/12/14 08:21:57;;;;;;;13.97;13.50;;;18.90;99.90;;;;;;5054232;28;20483;-51
2021/12/14 08:24:24;;;;;;;15.03;14.17;;;18.90;99.90;;;;;;5054287;28;20447;-51
2021/12/14 08:26:55;;;;;;;15.17;14.20;;;18.90;99.90;;;;;;5054295;28;20474;-49
2021/12/14 08:29:27;;;;;;;14.40;13.90;;;18.90;99.90;;;;;;5054288;28;20588;-52
2021/12/14 08:31:56;;;;;;;14.37;13.83;;;18.80;99.90;;;;;;5054336;28;20447;-51
2021/12/14 08:34:25;;;;;;;14.93;14.20;;;18.90;99.90;;;;;;5054122;28;20451;-54
2021/12/14 08:36:59;;;;;;;14.87;14.37;;;18.80;99.90;;;;;;5054125;28;20471;-53
2021/12/14 08:39:30;;;;;;;14.70;14.10;;;18.80;99.90;;;;;;5053622;28;20820;-53
2021/12/14 08:42:10;;;;;;;15.70;15.00;;;18.80;99.90;;;;;;5053885;28;20451;-52
2021/12/14 08:44:50;;;;;;;14.80;14.20;;;18.80;99.90;;;;;;5054043;28;20518;-50
2021/12/14 08:47:23;;;;;;;14.87;14.23;;;18.70;99.90;;;;;;5053900;28;20472;-51
2021/12/14 08:49:50;;;;;;;14.07;13.57;;;18.70;99.90;;;;;;5054027;28;20440;-50
2021/12/14 08:52:17;;;;;;;14.30;13.50;;;18.70;99.90;;;;;;5053767;28;20456;-52
2021/12/14 08:54:43;;;;;;;13.73;13.33;;;18.70;99.90;;;;;;5053718;28;20444;-49
2021/12/14 08:57:15;;;;;;;14.83;14.13;;;18.70;99.90;;;;;;5053637;28;20464;-49
2021/12/14 08:59:46;;;;;;;15.03;14.13;;;18.70;99.90;;;;;;5053615;28;20479;-54
2021/12/14 09:02:15;;;;;;;13.60;13.00;;;18.70;99.90;;;;;;5053421;28;20451;-49
2021/12/14 09:04:45;;;;;;;13.90;13.40;;;18.70;99.90;;;;;;5053692;28;20451;-50
2021/12/14 09:07:15;;;;;;;14.97;14.07;;;18.70;99.90;;;;;;5053495;28;20460;-52
2021/12/14 09:09:43;;;;;;;15.10;14.50;;;18.70;99.90;;;;;;5053731;28;20437;-49
2021/12/14 09:12:15;;;;;;;15.13;14.43;;;18.60;99.90;;;;;;5053283;28;20860;-50
2021/12/14 09:14:45;;;;;;;14.33;13.83;;;18.60;99.90;;;;;;5053518;28;20436;-50
2021/12/14 09:17:15;;;;;;;15.00;14.40;;;18.60;99.90;;;;;;5053291;28;20460;-52
2021/12/14 09:19:44;;;;;;;13.97;13.40;;;18.60;99.90;;;;;;5053160;28;20479;-49
2021/12/14 09:22:16;;;;;;;14.43;13.73;;;18.60;99.90;;;;;;5053166;28;20869;-52
2021/12/14 09:24:43;;;;;;;14.87;14.37;;;18.60;99.90;;;;;;5053175;28;20791;-51
2021/12/14 09:27:15;;;;;;;14.13;13.53;;;18.60;99.90;;;;;;5053087;28;20464;-50
2021/12/14 09:29:43;;;;;;;13.93;13.43;;;18.60;99.90;;;;;;5053128;28;20448;-56
2021/12/14 09:32:13;;;;;;;14.23;13.50;;;18.60;99.90;;;;;;5052993;28;20444;-52
2021/12/14 09:34:41;;;;;;;14.83;14.33;;;18.60;99.90;;;;;;5053097;28;20451;-52
2021/12/14 09:37:10;;;;;;;14.20;13.57;;;18.60;99.90;;;;;;5052939;28;20464;-51
2021/12/14 09:39:43;;;;;;;14.43;13.93;;;18.60;99.90;;;;;;5053097;28;20491;-49
2021/12/14 09:42:14;;;;;;;14.43;13.90;;;18.60;99.90;;;;;;5052773;28;20452;-50
2021/12/14 09:44:48;;;;;;;14.47;13.97;;;18.60;99.90;;;;;;5052805;28;20479;-53
2021/12/14 09:47:18;;;;;;;15.80;15.00;;;18.60;99.90;;;;;;5052659;28;20484;-52
2021/12/14 09:49:48;;;;;;;13.90;13.40;;;18.60;99.80;;;;;;5052746;28;20439;-50
2021/12/14 09:52:19;;;;;;;15.03;14.53;;;18.60;99.70;;;;;;5051738;28;20452;-52
2021/12/14 09:54:47;;;;;;;14.13;13.73;;;18.60;99.60;;;;;;5052741;28;20480;-53
2021/12/14 09:57:18;;;;;;;13.57;13.13;;;18.60;99.60;;;;;;5052536;28;20472;-49
2021/12/14 09:59:47;;;;;;;14.07;13.57;;;18.60;99.50;;;;;;5052580;28;20480;-51
2021/12/14 10:02:17;;;;;;;13.67;13.23;;;18.60;99.30;;;;;;5052408;28;20451;-50
2021/12/14 10:04:49;;;;;;;14.50;13.90;;;18.60;99.20;;;;;;5052433;28;20455;-50
2021/12/14 10:07:17;;;;;;;14.30;13.80;;;18.60;99.10;;;;;;5052343;28;20476;-49
2021/12/14 10:09:47;;;;;;;14.20;13.70;;;18.60;99.10;;;;;;5052442;28;20444;-50
2021/12/14 10:12:41;;;;;;;14.17;13.67;;;18.60;99.00;;;;;;5052240;28;20452;-50
2021/12/14 10:15:13;;;;;;;14.37;13.87;;;18.60;98.80;;;;;;5052160;28;20451;-51
2021/12/14 10:17:41;;;;;;;14.13;13.53;;;18.60;98.70;;;;;;5052114;28;20969;-52
2021/12/14 10:20:11;;;;;;;14.10;13.60;;;18.50;98.70;;;;;;5052023;28;20579;-50
2021/12/14 10:22:40;;;;;;;13.90;13.40;;;18.50;98.60;;;;;;5051954;28;20811;-52
2021/12/14 10:25:11;;;;;;;14.87;14.27;;;18.50;98.60;;;;;;5052161;28;20440;-52
2021/12/14 10:27:39;;;;;;;14.20;13.73;;;18.50;98.50;;;;;;5051989;28;20464;-53
2021/12/14 10:30:11;;;;;;;14.07;13.57;;;18.50;98.40;;;;;;5051849;28;20448;-52
2021/12/14 10:32:38;;;;;;;13.00;12.60;;;18.50;98.40;;;;;;5051850;28;20440;-50
2021/12/14 10:35:09;;;;;;;14.30;13.90;;;18.50;98.30;;;;;;5051844;28;20448;-52
2021/12/14 10:37:53;;;;;;;14.30;13.70;;;18.50;98.30;;;;;;5051783;28;20463;-50
2021/12/14 10:43:16;;;;;;;14.80;14.23;;;18.50;98.10;;;;;;5051706;28;20992;-52
2021/12/14 10:45:50;;;;;;;14.37;13.97;;;18.50;98.00;;;;;;5051548;28;20444;-50
2021/12/14 10:48:19;;;;;;;13.97;13.47;;;18.50;98.00;;;;;;5051849;28;20502;-49
2021/12/14 10:50:47;;;;;;;14.80;14.30;;;18.50;97.90;;;;;;5051487;28;20965;-52
2021/12/14 10:53:14;;;;;;;14.20;13.80;;;18.50;97.80;;;;;;5051465;28;20811;-52
2021/12/14 10:55:45;;;;;;;14.37;13.87;;;18.50;97.70;;;;;;5051594;28;20452;-49
2021/12/14 10:58:14;;;;;;;13.93;13.43;;;18.60;97.60;;;;;;5051616;28;20451;-54
2021/12/14 11:00:47;;;;;;;13.80;13.40;;;18.60;97.30;;;;;;5051409;28;20491;-50
2021/12/14 11:03:17;;;;;;;14.20;13.70;;;18.60;97.00;;;;;;5051228;28;20929;-50
2021/12/14 11:05:48;;;;;;;14.83;14.23;;;18.60;96.90;;;;;;5051567;28;20436;-55
2021/12/14 11:08:35;;;;;;;15.60;15.10;;;18.60;96.90;;;;;;5051487;28;20934;-51
2021/12/14 11:11:03;;;;;;;14.57;14.07;;;18.60;96.90;;;;;;5051448;28;20455;-51
2021/12/14 11:13:39;;;;;;;15.10;14.60;;;18.50;96.70;;;;;;5051179;28;20803;-56
2021/12/14 11:16:15;;;;;;;14.23;13.83;;;18.60;96.80;;;;;;5051277;28;20471;-49
2021/12/14 11:18:46;;;;;;;14.00;13.60;;;18.60;96.60;;;;;;5051250;28;20792;-49
2021/12/14 11:21:15;;;;;;;15.53;14.93;;;18.60;96.50;;;;;;5051301;28;20448;-53
2021/12/14 11:23:44;;;;;;;14.23;13.83;;;18.70;96.30;;;;;;5051112;28;20952;-49
2021/12/14 11:26:15;;;;;;;14.33;13.90;;;18.70;96.10;;;;;;5051163;28;20513;-55
2021/12/14 11:28:45;;;;;;;14.20;13.80;;;18.70;96.00;;;;;;5051320;28;20502;-50
2021/12/14 11:31:18;;;;;;;13.73;13.33;;;18.70;95.90;;;;;;5051164;28;20455;-50
2021/12/14 11:33:48;;;;;;;14.13;13.73;;;18.70;95.70;;;;;;5050997;28;20448;-52
2021/12/14 11:36:18;;;;;;;14.80;14.30;;;18.70;95.70;;;;;;5051149;28;20464;-50
2021/12/14 11:38:47;;;;;;;14.20;13.70;;;18.60;95.60;;;;;;5051168;28;20443;-53
2021/12/14 11:41:37;;;;;;;13.80;13.40;;;18.70;95.70;;;;;;5051194;28;20455;-49
2021/12/14 11:44:10;;;;;;;14.83;14.17;;;18.70;95.50;;;;;;5047042;28;20460;-52
2021/12/14 11:46:53;;;;;;;13.50;13.10;;;18.60;95.40;;;;;;5076145;22;20496;-48
2021/12/14 11:49:24;;;;;;;13.60;13.10;;;18.60;95.50;;;;;;5051065;28;20522;-51
2021/12/14 11:51:51;;;;;;;13.10;12.70;;;18.60;95.40;;;;;;5050934;28;20452;-51
2021/12/14 11:54:19;;;;;;;13.53;13.13;;;18.60;95.40;;;;;;5050917;28;20859;-53
2021/12/14 11:56:46;;;;;;;15.37;14.80;;;18.60;95.70;;;;;;5051058;28;20468;-50
2021/12/14 11:59:13;;;;;;;15.10;14.50;;;18.60;95.20;;;;;;5050811;28;20480;-47
2021/12/14 12:01:45;;;;;;;14.60;13.70;;;18.70;99.90;;;;;;5050721;28;20490;-49
2021/12/14 12:04:18;;;;;;;14.38;13.57;;;18.80;99.90;;;;;;5050499;28;20466;-48
2021/12/14 12:09:32;;;;;;;12.20;11.80;;;19.10;99.90;;;;;;5049948;28;20420;-53
2021/12/14 12:12:09;;;;;;;14.43;13.90;;;19.20;99.90;;;;;;5050624;28;20202;-51
2021/12/14 12:14:40;;;;;;;14.53;13.90;;;19.30;99.90;;;;;;5051411;28;20509;-52
2021/12/14 12:17:17;;;;;;;14.90;14.20;;;19.30;99.90;;;;;;5054452;28;20987;-50
2021/12/14 12:19:59;;;;;;;14.33;13.63;;;19.30;99.90;;;;;;5054260;28;20483;-52
2021/12/14 12:22:31;;;;;;;13.10;12.70;;;19.40;99.90;;;;;;5054372;28;20478;-54
2021/12/14 12:25:00;;;;;;;14.00;13.40;;;19.40;99.90;;;;;;5054311;28;20450;-49
2021/12/14 12:27:30;;;;;;;13.90;13.40;;;19.40;99.90;;;;;;5054334;28;20468;-52
2021/12/14 12:30:26;;;;;;;13.80;13.30;;;19.40;99.90;;;;;;5054286;28;20936;-49
2021/12/14 12:32:54;;;;;;;14.37;13.77;;;19.30;99.90;;;;;;5053924;28;20543;-50
2021/12/14 12:35:29;;;;;;;14.23;13.63;;;19.40;99.90;;;;;;5053990;28;20448;-52
2021/12/14 12:37:58;;;;;;;13.43;13.03;;;19.40;99.90;;;;;;5054171;28;20471;-49
2021/12/14 12:40:38;;;;;;;14.57;13.97;;;19.40;99.90;;;;;;5053783;28;20491;-51
2021/12/14 12:43:18;;;;;;;13.40;12.90;;;19.40;99.90;;;;;;5053769;28;20448;-53
2021/12/14 12:45:58;;;;;;;13.57;12.97;;;19.50;99.90;;;;;;5053923;28;20813;-50
2021/12/14 12:48:55;;;;;;;14.93;14.23;;;19.50;99.90;;;;;;5053905;28;20531;-49
2021/12/14 12:51:48;;;;;;;14.10;13.50;;;19.50;99.90;;;;;;5040915;28;20482;-50
2021/12/14 12:54:27;;;;;;;14.60;13.90;;;19.50;99.90;;;;;;5053719;28;20476;-49
2021/12/14 12:57:15;;;;;;;14.10;13.60;;;19.40;99.90;;;;;;5053787;28;20554;-51
2021/12/14 12:59:49;;;;;;;14.57;14.03;;;19.30;99.90;;;;;;5053350;28;20843;-50
2021/12/14 13:02:23;;;;;;;14.17;13.67;;;19.30;99.90;;;;;;5053456;28;20452;-49
2021/12/14 13:04:54;;;;;;;13.57;13.17;;;19.30;99.90;;;;;;5053630;28;20444;-50
2021/12/14 13:07:33;;;;;;;14.23;13.53;;;19.30;99.90;;;;;;5053475;28;20460;-49
2021/12/14 13:10:19;;;;;;;15.10;14.60;;;19.30;99.80;;;;;;5053442;28;20945;-50
2021/12/14 13:12:54;;;;;;;14.43;13.93;;;19.30;99.50;;;;;;5053298;28;20448;-51
2021/12/14 13:15:51;;;;;;;14.73;14.23;;;19.30;99.10;;;;;;5053431;28;20448;-50